sensor_id;sensor_type;location;lat;lon;timestamp;temperature;humidity
10903;DHT22;5504;47.312;11.060;2023-04-25T00:00:34;9.90;88.80
10903;DHT22;5504;47.312;11.060;2023-04-25T00:03:00;9.80;88.90
10903;DHT22;5504;47.312;11.060;2023-04-25T00:05:26;9.80;88.50
10903;DHT22;5504;47.312;11.060;2023-04-25T00:07:52;9.80;88.10
10903;DHT22;5504;47.312;11.060;2023-04-25T00:10:19;9.60;88.40
10903;DHT22;5504;47.312;11.060;2023-04-25T00:12:45;9.60;89.10
10903;DHT22;5504;47.312;11.060;2023-04-25T00:15:12;9.60;89.50
10903;DHT22;5504;47.312;11.060;2023-04-25T00:17:37;9.60;89.90
10903;DHT22;5504;47.312;11.060;2023-04-25T00:20:06;9.60;90.00
10903;DHT22;5504;47.312;11.060;2023-04-25T00:22:35;9.60;89.90
10903;DHT22;5504;47.312;11.060;2023-04-25T00:25:04;9.60;90.10
10903;DHT22;5504;47.312;11.060;2023-04-25T00:27:29;9.50;89.70
10903;DHT22;5504;47.312;11.060;2023-04-25T00:29:55;9.60;90.20
10903;DHT22;5504;47.312;11.060;2023-04-25T00:32:21;9.60;90.40
10903;DHT22;5504;47.312;11.060;2023-04-25T00:34:46;9.40;90.30
10903;DHT22;5504;47.312;11.060;2023-04-25T00:37:12;9.40;90.00
10903;DHT22;5504;47.312;11.060;2023-04-25T00:39:38;9.40;90.10
10903;DHT22;5504;47.312;11.060;2023-04-25T00:42:04;9.50;90.40
10903;DHT22;5504;47.312;11.060;2023-04-25T00:44:31;9.40;90.40
10903;DHT22;5504;47.312;11.060;2023-04-25T00:47:01;9.30;90.20
10903;DHT22;5504;47.312;11.060;2023-04-25T00:49:27;9.30;90.20
10903;DHT22;5504;47.312;11.060;2023-04-25T00:51:52;9.30;90.30
10903;DHT22;5504;47.312;11.060;2023-04-25T00:54:18;9.20;90.20
10903;DHT22;5504;47.312;11.060;2023-04-25T00:56:45;9.10;90.10
10903;DHT22;5504;47.312;11.060;2023-04-25T00:59:11;9.10;90.10
10903;DHT22;5504;47.312;11.060;2023-04-25T01:01:37;9.10;90.40
10903;DHT22;5504;47.312;11.060;2023-04-25T01:04:04;9.10;90.30
10903;DHT22;5504;47.312;11.060;2023-04-25T01:06:30;9.00;90.00
10903;DHT22;5504;47.312;11.060;2023-04-25T01:08:57;9.00;90.20
10903;DHT22;5504;47.312;11.060;2023-04-25T01:11:24;8.90;90.20
10903;DHT22;5504;47.312;11.060;2023-04-25T01:13:50;8.90;90.70
10903;DHT22;5504;47.312;11.060;2023-04-25T01:16:16;9.00;90.90
10903;DHT22;5504;47.312;11.060;2023-04-25T01:18:42;9.00;90.90
10903;DHT22;5504;47.312;11.060;2023-04-25T01:21:09;8.90;90.80
10903;DHT22;5504;47.312;11.060;2023-04-25T01:23:36;8.90;91.00
10903;DHT22;5504;47.312;11.060;2023-04-25T01:26:02;9.00;91.30
10903;DHT22;5504;47.312;11.060;2023-04-25T01:28:29;9.10;91.20
10903;DHT22;5504;47.312;11.060;2023-04-25T01:30:55;9.20;90.90
10903;DHT22;5504;47.312;11.060;2023-04-25T01:33:22;9.20;91.00
10903;DHT22;5504;47.312;11.060;2023-04-25T01:35:48;9.20;90.90
10903;DHT22;5504;47.312;11.060;2023-04-25T01:38:14;9.20;90.90
10903;DHT22;5504;47.312;11.060;2023-04-25T01:40:40;9.20;91.20
10903;DHT22;5504;47.312;11.060;2023-04-25T01:43:07;9.20;91.40
10903;DHT22;5504;47.312;11.060;2023-04-25T01:45:41;9.30;91.50
10903;DHT22;5504;47.312;11.060;2023-04-25T01:48:08;9.30;91.60
10903;DHT22;5504;47.312;11.060;2023-04-25T01:50:34;9.40;91.40
10903;DHT22;5504;47.312;11.060;2023-04-25T01:53:00;9.30;91.50
10903;DHT22;5504;47.312;11.060;2023-04-25T01:55:27;9.30;91.30
10903;DHT22;5504;47.312;11.060;2023-04-25T01:57:53;9.10;91.40
10903;DHT22;5504;47.312;11.060;2023-04-25T02:00:19;8.90;91.70
10903;DHT22;5504;47.312;11.060;2023-04-25T02:02:46;8.80;92.20
10903;DHT22;5504;47.312;11.060;2023-04-25T02:05:11;8.90;92.70
10903;DHT22;5504;47.312;11.060;2023-04-25T02:07:37;9.10;92.50
10903;DHT22;5504;47.312;11.060;2023-04-25T02:10:03;9.20;92.20
10903;DHT22;5504;47.312;11.060;2023-04-25T02:12:30;9.30;92.20
10903;DHT22;5504;47.312;11.060;2023-04-25T02:14:56;9.20;92.00
10903;DHT22;5504;47.312;11.060;2023-04-25T02:17:22;9.20;92.00
10903;DHT22;5504;47.312;11.060;2023-04-25T02:19:47;9.10;91.80
10903;DHT22;5504;47.312;11.060;2023-04-25T02:22:13;8.90;91.80
10903;DHT22;5504;47.312;11.060;2023-04-25T02:24:39;8.80;91.60
10903;DHT22;5504;47.312;11.060;2023-04-25T02:27:05;8.70;91.80
10903;DHT22;5504;47.312;11.060;2023-04-25T02:29:31;8.50;91.20
10903;DHT22;5504;47.312;11.060;2023-04-25T02:31:57;8.50;91.70
10903;DHT22;5504;47.312;11.060;2023-04-25T02:34:22;8.50;91.60
10903;DHT22;5504;47.312;11.060;2023-04-25T02:36:49;8.50;91.80
10903;DHT22;5504;47.312;11.060;2023-04-25T02:39:17;8.40;91.80
10903;DHT22;5504;47.312;11.060;2023-04-25T02:41:43;8.40;91.70
10903;DHT22;5504;47.312;11.060;2023-04-25T02:44:09;8.40;91.50
10903;DHT22;5504;47.312;11.060;2023-04-25T02:46:35;8.30;91.60
10903;DHT22;5504;47.312;11.060;2023-04-25T02:49:00;8.40;91.80
10903;DHT22;5504;47.312;11.060;2023-04-25T02:51:26;8.50;91.90
10903;DHT22;5504;47.312;11.060;2023-04-25T02:53:52;8.50;91.80
10903;DHT22;5504;47.312;11.060;2023-04-25T02:56:17;8.60;91.70
10903;DHT22;5504;47.312;11.060;2023-04-25T02:58:43;8.70;91.80
10903;DHT22;5504;47.312;11.060;2023-04-25T03:01:09;8.70;92.00
10903;DHT22;5504;47.312;11.060;2023-04-25T03:03:35;8.60;92.00
10903;DHT22;5504;47.312;11.060;2023-04-25T03:06:01;8.60;92.10
10903;DHT22;5504;47.312;11.060;2023-04-25T03:08:26;8.60;92.30
10903;DHT22;5504;47.312;11.060;2023-04-25T03:10:57;8.60;92.70
10903;DHT22;5504;47.312;11.060;2023-04-25T03:13:24;8.60;92.30
10903;DHT22;5504;47.312;11.060;2023-04-25T03:15:50;8.50;92.20
10903;DHT22;5504;47.312;11.060;2023-04-25T03:18:15;8.60;92.40
10903;DHT22;5504;47.312;11.060;2023-04-25T03:20:41;8.50;92.10
10903;DHT22;5504;47.312;11.060;2023-04-25T03:23:07;8.40;92.00
10903;DHT22;5504;47.312;11.060;2023-04-25T03:25:33;8.40;92.50
10903;DHT22;5504;47.312;11.060;2023-04-25T03:27:58;8.40;92.40
10903;DHT22;5504;47.312;11.060;2023-04-25T03:30:24;8.50;92.40
10903;DHT22;5504;47.312;11.060;2023-04-25T03:32:50;8.40;92.40
10903;DHT22;5504;47.312;11.060;2023-04-25T03:35:17;8.40;92.40
10903;DHT22;5504;47.312;11.060;2023-04-25T03:37:43;8.40;92.70
10903;DHT22;5504;47.312;11.060;2023-04-25T03:40:11;8.40;92.80
10903;DHT22;5504;47.312;11.060;2023-04-25T03:42:37;8.40;92.90
10903;DHT22;5504;47.312;11.060;2023-04-25T03:45:03;8.50;92.80
10903;DHT22;5504;47.312;11.060;2023-04-25T03:47:29;8.50;92.70
10903;DHT22;5504;47.312;11.060;2023-04-25T03:49:55;8.40;92.60
10903;DHT22;5504;47.312;11.060;2023-04-25T03:52:20;8.50;92.80
10903;DHT22;5504;47.312;11.060;2023-04-25T03:54:46;8.50;92.60
10903;DHT22;5504;47.312;11.060;2023-04-25T03:57:12;8.50;92.60
10903;DHT22;5504;47.312;11.060;2023-04-25T03:59:37;8.60;92.70
10903;DHT22;5504;47.312;11.060;2023-04-25T04:02:03;8.60;92.60
10903;DHT22;5504;47.312;11.060;2023-04-25T04:04:29;8.50;92.40
10903;DHT22;5504;47.312;11.060;2023-04-25T04:06:55;8.30;92.40
10903;DHT22;5504;47.312;11.060;2023-04-25T04:09:21;8.50;92.60
10903;DHT22;5504;47.312;11.060;2023-04-25T04:11:46;8.50;92.60
10903;DHT22;5504;47.312;11.060;2023-04-25T04:14:12;8.50;92.40
10903;DHT22;5504;47.312;11.060;2023-04-25T04:16:38;8.40;92.40
10903;DHT22;5504;47.312;11.060;2023-04-25T04:19:03;8.30;92.50
10903;DHT22;5504;47.312;11.060;2023-04-25T04:21:29;8.30;92.30
10903;DHT22;5504;47.312;11.060;2023-04-25T04:23:55;8.20;92.30
10903;DHT22;5504;47.312;11.060;2023-04-25T04:26:23;8.00;91.70
10903;DHT22;5504;47.312;11.060;2023-04-25T04:28:49;7.90;91.90
10903;DHT22;5504;47.312;11.060;2023-04-25T04:31:23;7.80;92.10
10903;DHT22;5504;47.312;11.060;2023-04-25T04:33:49;7.90;92.30
10903;DHT22;5504;47.312;11.060;2023-04-25T04:36:15;7.90;92.40
10903;DHT22;5504;47.312;11.060;2023-04-25T04:38:41;7.90;92.30
10903;DHT22;5504;47.312;11.060;2023-04-25T04:41:08;7.90;92.30
10903;DHT22;5504;47.312;11.060;2023-04-25T04:43:33;7.80;92.50
10903;DHT22;5504;47.312;11.060;2023-04-25T04:46:02;8.00;92.80
10903;DHT22;5504;47.312;11.060;2023-04-25T04:48:30;8.10;92.70
10903;DHT22;5504;47.312;11.060;2023-04-25T04:50:58;8.10;92.50
10903;DHT22;5504;47.312;11.060;2023-04-25T04:53:24;8.10;92.20
10903;DHT22;5504;47.312;11.060;2023-04-25T04:55:49;8.00;92.20
10903;DHT22;5504;47.312;11.060;2023-04-25T04:58:15;8.10;92.50
10903;DHT22;5504;47.312;11.060;2023-04-25T05:00:41;8.10;92.30
10903;DHT22;5504;47.312;11.060;2023-04-25T05:03:06;8.10;92.20
10903;DHT22;5504;47.312;11.060;2023-04-25T05:05:32;8.20;92.50
10903;DHT22;5504;47.312;11.060;2023-04-25T05:07:58;8.30;92.80
10903;DHT22;5504;47.312;11.060;2023-04-25T05:10:24;8.40;92.60
10903;DHT22;5504;47.312;11.060;2023-04-25T05:12:49;8.40;92.70
10903;DHT22;5504;47.312;11.060;2023-04-25T05:15:15;8.50;92.90
10903;DHT22;5504;47.312;11.060;2023-04-25T05:17:41;8.50;92.90
10903;DHT22;5504;47.312;11.060;2023-04-25T05:20:08;8.60;92.90
10903;DHT22;5504;47.312;11.060;2023-04-25T05:22:35;8.70;92.80
10903;DHT22;5504;47.312;11.060;2023-04-25T05:25:01;8.70;92.40
10903;DHT22;5504;47.312;11.060;2023-04-25T05:27:27;8.60;92.20
10903;DHT22;5504;47.312;11.060;2023-04-25T05:29:53;8.70;92.30
10903;DHT22;5504;47.312;11.060;2023-04-25T05:32:18;8.80;92.60
10903;DHT22;5504;47.312;11.060;2023-04-25T05:34:44;9.00;92.70
10903;DHT22;5504;47.312;11.060;2023-04-25T05:37:10;9.10;92.50
10903;DHT22;5504;47.312;11.060;2023-04-25T05:39:35;9.00;92.40
10903;DHT22;5504;47.312;11.060;2023-04-25T05:42:01;9.10;92.10
10903;DHT22;5504;47.312;11.060;2023-04-25T05:44:28;9.10;92.10
10903;DHT22;5504;47.312;11.060;2023-04-25T05:46:53;9.20;92.30
10903;DHT22;5504;47.312;11.060;2023-04-25T05:49:20;9.30;92.00
10903;DHT22;5504;47.312;11.060;2023-04-25T05:51:46;9.40;92.10
10903;DHT22;5504;47.312;11.060;2023-04-25T05:54:11;9.80;92.20
10903;DHT22;5504;47.312;11.060;2023-04-25T05:56:37;10.20;91.70
10903;DHT22;5504;47.312;11.060;2023-04-25T05:59:02;10.70;91.00
10903;DHT22;5504;47.312;11.060;2023-04-25T06:01:28;10.90;89.40
10903;DHT22;5504;47.312;11.060;2023-04-25T06:03:54;11.00;86.70
10903;DHT22;5504;47.312;11.060;2023-04-25T06:06:20;11.00;86.50
10903;DHT22;5504;47.312;11.060;2023-04-25T06:08:46;11.20;86.30
10903;DHT22;5504;47.312;11.060;2023-04-25T06:11:11;11.20;85.00
10903;DHT22;5504;47.312;11.060;2023-04-25T06:13:37;11.10;84.60
10903;DHT22;5504;47.312;11.060;2023-04-25T06:16:03;11.10;85.10
10903;DHT22;5504;47.312;11.060;2023-04-25T06:18:29;11.10;85.20
10903;DHT22;5504;47.312;11.060;2023-04-25T06:20:55;11.10;85.20
10903;DHT22;5504;47.312;11.060;2023-04-25T06:23:21;11.10;85.20
10903;DHT22;5504;47.312;11.060;2023-04-25T06:25:46;11.00;85.60
10903;DHT22;5504;47.312;11.060;2023-04-25T06:28:12;10.90;85.40
10903;DHT22;5504;47.312;11.060;2023-04-25T06:30:38;11.00;85.70
10903;DHT22;5504;47.312;11.060;2023-04-25T06:33:03;10.90;84.50
10903;DHT22;5504;47.312;11.060;2023-04-25T06:35:29;10.90;84.50
10903;DHT22;5504;47.312;11.060;2023-04-25T06:37:55;10.80;84.90
10903;DHT22;5504;47.312;11.060;2023-04-25T06:40:21;10.80;84.80
10903;DHT22;5504;47.312;11.060;2023-04-25T06:42:46;10.80;84.70
10903;DHT22;5504;47.312;11.060;2023-04-25T06:45:12;10.80;85.40
10903;DHT22;5504;47.312;11.060;2023-04-25T06:47:38;10.90;84.80
10903;DHT22;5504;47.312;11.060;2023-04-25T06:50:04;11.00;84.60
10903;DHT22;5504;47.312;11.060;2023-04-25T06:52:30;11.20;84.80
10903;DHT22;5504;47.312;11.060;2023-04-25T06:54:56;11.30;84.00
10903;DHT22;5504;47.312;11.060;2023-04-25T06:57:21;11.50;82.50
10903;DHT22;5504;47.312;11.060;2023-04-25T06:59:47;11.70;82.60
10903;DHT22;5504;47.312;11.060;2023-04-25T07:02:12;11.90;82.80
10903;DHT22;5504;47.312;11.060;2023-04-25T07:04:38;12.20;81.50
10903;DHT22;5504;47.312;11.060;2023-04-25T07:07:04;12.30;79.60
10903;DHT22;5504;47.312;11.060;2023-04-25T07:09:29;11.80;78.30
10903;DHT22;5504;47.312;11.060;2023-04-25T07:11:55;11.30;79.30
10903;DHT22;5504;47.312;11.060;2023-04-25T07:14:22;11.70;81.20
10903;DHT22;5504;47.312;11.060;2023-04-25T07:16:48;12.00;78.50
10903;DHT22;5504;47.312;11.060;2023-04-25T07:19:13;11.90;78.20
10903;DHT22;5504;47.312;11.060;2023-04-25T07:21:39;12.10;76.10
10903;DHT22;5504;47.312;11.060;2023-04-25T07:24:05;12.30;77.10
10903;DHT22;5504;47.312;11.060;2023-04-25T07:26:31;12.50;77.20
10903;DHT22;5504;47.312;11.060;2023-04-25T07:28:57;12.80;77.30
10903;DHT22;5504;47.312;11.060;2023-04-25T07:31:22;12.90;78.40
10903;DHT22;5504;47.312;11.060;2023-04-25T07:33:48;13.20;76.50
10903;DHT22;5504;47.312;11.060;2023-04-25T07:36:14;13.40;74.80
10903;DHT22;5504;47.312;11.060;2023-04-25T07:38:41;13.50;75.00
10903;DHT22;5504;47.312;11.060;2023-04-25T07:41:06;14.20;76.60
10903;DHT22;5504;47.312;11.060;2023-04-25T07:43:32;15.20;73.70
10903;DHT22;5504;47.312;11.060;2023-04-25T07:45:58;15.70;70.20
10903;DHT22;5504;47.312;11.060;2023-04-25T07:48:24;16.20;69.30
10903;DHT22;5504;47.312;11.060;2023-04-25T07:50:49;16.70;63.60
10903;DHT22;5504;47.312;11.060;2023-04-25T07:53:15;15.60;64.20
10903;DHT22;5504;47.312;11.060;2023-04-25T07:55:43;16.30;68.40
10903;DHT22;5504;47.312;11.060;2023-04-25T07:58:09;17.20;65.80
10903;DHT22;5504;47.312;11.060;2023-04-25T08:00:35;17.40;63.30
10903;DHT22;5504;47.312;11.060;2023-04-25T08:03:01;16.50;60.20
10903;DHT22;5504;47.312;11.060;2023-04-25T08:05:28;15.80;64.20
10903;DHT22;5504;47.312;11.060;2023-04-25T08:07:53;16.60;64.10
10903;DHT22;5504;47.312;11.060;2023-04-25T08:10:19;17.40;62.90
10903;DHT22;5504;47.312;11.060;2023-04-25T08:12:46;18.00;60.20
10903;DHT22;5504;47.312;11.060;2023-04-25T08:15:11;18.40;59.80
10903;DHT22;5504;47.312;11.060;2023-04-25T08:17:39;18.90;59.30
10903;DHT22;5504;47.312;11.060;2023-04-25T08:20:05;18.30;56.70
10903;DHT22;5504;47.312;11.060;2023-04-25T08:22:31;17.10;60.00
10903;DHT22;5504;47.312;11.060;2023-04-25T08:24:57;17.40;63.50
10903;DHT22;5504;47.312;11.060;2023-04-25T08:27:23;18.70;61.40
10903;DHT22;5504;47.312;11.060;2023-04-25T08:29:49;18.80;58.00
10903;DHT22;5504;47.312;11.060;2023-04-25T08:32:16;20.00;58.00
10903;DHT22;5504;47.312;11.060;2023-04-25T08:34:41;20.90;54.90
10903;DHT22;5504;47.312;11.060;2023-04-25T08:37:09;19.80;54.60
10903;DHT22;5504;47.312;11.060;2023-04-25T08:39:36;17.10;57.20
10903;DHT22;5504;47.312;11.060;2023-04-25T08:42:05;15.60;57.00
10903;DHT22;5504;47.312;11.060;2023-04-25T08:44:34;15.60;58.90
10903;DHT22;5504;47.312;11.060;2023-04-25T08:47:04;15.60;56.40
10903;DHT22;5504;47.312;11.060;2023-04-25T08:49:33;16.30;60.80
10903;DHT22;5504;47.312;11.060;2023-04-25T08:52:02;17.40;57.80
10903;DHT22;5504;47.312;11.060;2023-04-25T08:54:31;17.60;58.40
10903;DHT22;5504;47.312;11.060;2023-04-25T08:56:59;17.20;55.50
10903;DHT22;5504;47.312;11.060;2023-04-25T08:59:27;18.20;58.00
10903;DHT22;5504;47.312;11.060;2023-04-25T09:01:53;19.70;57.00
10903;DHT22;5504;47.312;11.060;2023-04-25T09:04:19;20.60;55.30
10903;DHT22;5504;47.312;11.060;2023-04-25T09:06:46;21.60;52.30
10903;DHT22;5504;47.312;11.060;2023-04-25T09:09:12;21.50;49.60
10903;DHT22;5504;47.312;11.060;2023-04-25T09:11:38;21.40;52.50
10903;DHT22;5504;47.312;11.060;2023-04-25T09:14:17;21.70;49.70
10903;DHT22;5504;47.312;11.060;2023-04-25T09:21:56;18.90;49.20
10903;DHT22;5504;47.312;11.060;2023-04-25T09:24:40;18.90;51.30
10903;DHT22;5504;47.312;11.060;2023-04-25T09:27:08;18.80;52.60
10903;DHT22;5504;47.312;11.060;2023-04-25T09:29:35;17.40;49.90
10903;DHT22;5504;47.312;11.060;2023-04-25T09:32:23;16.80;51.60
10903;DHT22;5504;47.312;11.060;2023-04-25T09:34:50;17.10;54.60
10903;DHT22;5504;47.312;11.060;2023-04-25T09:37:28;16.70;52.90
10903;DHT22;5504;47.312;11.060;2023-04-25T09:39:56;16.70;55.10
10903;DHT22;5504;47.312;11.060;2023-04-25T09:42:25;17.00;56.00
10903;DHT22;5504;47.312;11.060;2023-04-25T09:44:53;16.90;56.90
10903;DHT22;5504;47.312;11.060;2023-04-25T09:47:20;16.90;55.20
10903;DHT22;5504;47.312;11.060;2023-04-25T09:49:50;17.30;55.70
10903;DHT22;5504;47.312;11.060;2023-04-25T09:52:18;16.50;53.50
10903;DHT22;5504;47.312;11.060;2023-04-25T09:54:45;15.40;54.80
10903;DHT22;5504;47.312;11.060;2023-04-25T09:57:16;15.40;55.80
10903;DHT22;5504;47.312;11.060;2023-04-25T09:59:49;15.30;57.30
10903;DHT22;5504;47.312;11.060;2023-04-25T10:02:18;15.70;57.00
10903;DHT22;5504;47.312;11.060;2023-04-25T10:04:49;15.80;56.20
10903;DHT22;5504;47.312;11.060;2023-04-25T10:07:16;16.10;54.80
10903;DHT22;5504;47.312;11.060;2023-04-25T10:09:43;16.80;54.60
10903;DHT22;5504;47.312;11.060;2023-04-25T10:12:12;17.30;53.70
10903;DHT22;5504;47.312;11.060;2023-04-25T10:14:38;17.90;54.20
10903;DHT22;5504;47.312;11.060;2023-04-25T10:17:04;17.70;48.40
10903;DHT22;5504;47.312;11.060;2023-04-25T10:19:32;16.70;49.50
10903;DHT22;5504;47.312;11.060;2023-04-25T10:24:31;18.40;52.80
10903;DHT22;5504;47.312;11.060;2023-04-25T10:26:58;16.80;48.90
10903;DHT22;5504;47.312;11.060;2023-04-25T10:29:25;17.50;53.80
10903;DHT22;5504;47.312;11.060;2023-04-25T10:31:51;18.60;50.70
10903;DHT22;5504;47.312;11.060;2023-04-25T10:34:17;18.60;49.40
10903;DHT22;5504;47.312;11.060;2023-04-25T10:36:50;19.60;51.00
10903;DHT22;5504;47.312;11.060;2023-04-25T10:39:25;20.20;49.00
10903;DHT22;5504;47.312;11.060;2023-04-25T10:41:55;20.40;48.30
10903;DHT22;5504;47.312;11.060;2023-04-25T10:44:21;20.30;46.90
10903;DHT22;5504;47.312;11.060;2023-04-25T10:46:47;20.00;46.40
10903;DHT22;5504;47.312;11.060;2023-04-25T10:49:32;19.50;45.50
10903;DHT22;5504;47.312;11.060;2023-04-25T10:52:26;19.30;45.20
10903;DHT22;5504;47.312;11.060;2023-04-25T10:54:55;19.60;48.30
10903;DHT22;5504;47.312;11.060;2023-04-25T10:57:39;19.50;47.60
10903;DHT22;5504;47.312;11.060;2023-04-25T11:00:12;19.00;43.80
10903;DHT22;5504;47.312;11.060;2023-04-25T11:02:52;18.40;47.70
10903;DHT22;5504;47.312;11.060;2023-04-25T11:05:33;17.60;47.20
10903;DHT22;5504;47.312;11.060;2023-04-25T11:08:00;16.60;48.40
10903;DHT22;5504;47.312;11.060;2023-04-25T11:10:31;15.70;50.10
10903;DHT22;5504;47.312;11.060;2023-04-25T11:12:57;15.30;49.70
10903;DHT22;5504;47.312;11.060;2023-04-25T11:15:23;15.20;52.30
10903;DHT22;5504;47.312;11.060;2023-04-25T11:17:53;15.00;50.20
10903;DHT22;5504;47.312;11.060;2023-04-25T11:20:20;15.00;51.00
10903;DHT22;5504;47.312;11.060;2023-04-25T11:22:46;15.40;53.20
10903;DHT22;5504;47.312;11.060;2023-04-25T11:25:15;16.10;51.90
10903;DHT22;5504;47.312;11.060;2023-04-25T11:27:55;17.20;54.00
10903;DHT22;5504;47.312;11.060;2023-04-25T11:30:23;18.10;50.40
10903;DHT22;5504;47.312;11.060;2023-04-25T11:32:49;18.50;48.00
10903;DHT22;5504;47.312;11.060;2023-04-25T11:35:16;19.30;47.60
10903;DHT22;5504;47.312;11.060;2023-04-25T11:37:42;19.30;48.50
10903;DHT22;5504;47.312;11.060;2023-04-25T11:40:09;18.90;48.40
10903;DHT22;5504;47.312;11.060;2023-04-25T11:42:43;19.00;50.20
10903;DHT22;5504;47.312;11.060;2023-04-25T11:45:09;19.00;48.40
10903;DHT22;5504;47.312;11.060;2023-04-25T11:47:36;18.20;49.70
10903;DHT22;5504;47.312;11.060;2023-04-25T11:50:03;18.00;48.00
10903;DHT22;5504;47.312;11.060;2023-04-25T11:52:43;17.80;49.40
10903;DHT22;5504;47.312;11.060;2023-04-25T11:55:20;17.40;48.70
10903;DHT22;5504;47.312;11.060;2023-04-25T11:57:48;17.40;50.30
10903;DHT22;5504;47.312;11.060;2023-04-25T12:00:19;17.30;51.70
10903;DHT22;5504;47.312;11.060;2023-04-25T12:02:56;17.60;48.30
10903;DHT22;5504;47.312;11.060;2023-04-25T12:05:28;18.50;49.20
10903;DHT22;5504;47.312;11.060;2023-04-25T12:07:54;18.70;46.80
10903;DHT22;5504;47.312;11.060;2023-04-25T12:10:20;18.00;48.40
10903;DHT22;5504;47.312;11.060;2023-04-25T12:12:47;18.50;49.20
10903;DHT22;5504;47.312;11.060;2023-04-25T12:15:25;18.10;46.00
10903;DHT22;5504;47.312;11.060;2023-04-25T12:17:53;18.10;47.00
10903;DHT22;5504;47.312;11.060;2023-04-25T12:20:23;17.90;48.50
10903;DHT22;5504;47.312;11.060;2023-04-25T12:22:49;18.50;46.30
10903;DHT22;5504;47.312;11.060;2023-04-25T12:25:43;18.60;46.20
10903;DHT22;5504;47.312;11.060;2023-04-25T12:28:20;18.70;47.90
10903;DHT22;5504;47.312;11.060;2023-04-25T12:31:00;18.50;46.50
10903;DHT22;5504;47.312;11.060;2023-04-25T12:33:30;18.30;46.10
10903;DHT22;5504;47.312;11.060;2023-04-25T12:35:56;18.40;47.30
10903;DHT22;5504;47.312;11.060;2023-04-25T12:40:48;18.40;47.10
10903;DHT22;5504;47.312;11.060;2023-04-25T12:43:14;18.40;48.50
10903;DHT22;5504;47.312;11.060;2023-04-25T12:45:40;17.90;48.20
10903;DHT22;5504;47.312;11.060;2023-04-25T12:48:06;17.40;45.20
10903;DHT22;5504;47.312;11.060;2023-04-25T12:50:32;16.70;46.50
10903;DHT22;5504;47.312;11.060;2023-04-25T12:52:57;16.20;47.10
10903;DHT22;5504;47.312;11.060;2023-04-25T12:55:23;15.80;47.00
10903;DHT22;5504;47.312;11.060;2023-04-25T12:57:49;15.30;48.30
10903;DHT22;5504;47.312;11.060;2023-04-25T13:00:15;14.90;50.50
10903;DHT22;5504;47.312;11.060;2023-04-25T13:02:43;14.80;52.90
10903;DHT22;5504;47.312;11.060;2023-04-25T13:05:09;14.80;53.40
10903;DHT22;5504;47.312;11.060;2023-04-25T13:07:34;14.80;54.00
10903;DHT22;5504;47.312;11.060;2023-04-25T13:10:00;14.80;54.00
10903;DHT22;5504;47.312;11.060;2023-04-25T13:12:27;15.30;55.00
10903;DHT22;5504;47.312;11.060;2023-04-25T13:14:53;15.90;54.00
10903;DHT22;5504;47.312;11.060;2023-04-25T13:17:19;16.50;52.70
10903;DHT22;5504;47.312;11.060;2023-04-25T13:19:44;17.20;52.30
10903;DHT22;5504;47.312;11.060;2023-04-25T13:22:10;17.50;51.70
10903;DHT22;5504;47.312;11.060;2023-04-25T13:24:36;17.60;51.00
10903;DHT22;5504;47.312;11.060;2023-04-25T13:27:02;16.80;50.00
10903;DHT22;5504;47.312;11.060;2023-04-25T13:29:28;16.40;51.80
10903;DHT22;5504;47.312;11.060;2023-04-25T13:31:54;15.80;51.20
10903;DHT22;5504;47.312;11.060;2023-04-25T13:34:20;15.50;51.40
10903;DHT22;5504;47.312;11.060;2023-04-25T13:36:46;15.50;52.50
10903;DHT22;5504;47.312;11.060;2023-04-25T13:39:11;15.40;51.60
10903;DHT22;5504;47.312;11.060;2023-04-25T13:41:37;14.90;52.30
10903;DHT22;5504;47.312;11.060;2023-04-25T13:44:03;14.70;51.50
10903;DHT22;5504;47.312;11.060;2023-04-25T13:46:29;14.70;52.50
10903;DHT22;5504;47.312;11.060;2023-04-25T13:48:54;14.50;51.40
10903;DHT22;5504;47.312;11.060;2023-04-25T13:51:20;14.00;51.30
10903;DHT22;5504;47.312;11.060;2023-04-25T13:53:46;13.90;52.10
10903;DHT22;5504;47.312;11.060;2023-04-25T13:56:11;13.80;51.90
10903;DHT22;5504;47.312;11.060;2023-04-25T13:58:38;13.60;52.50
10903;DHT22;5504;47.312;11.060;2023-04-25T14:01:03;13.00;53.00
10903;DHT22;5504;47.312;11.060;2023-04-25T14:03:29;12.70;53.60
10903;DHT22;5504;47.312;11.060;2023-04-25T14:05:55;12.60;54.30
10903;DHT22;5504;47.312;11.060;2023-04-25T14:08:21;12.60;54.50
10903;DHT22;5504;47.312;11.060;2023-04-25T14:10:47;12.80;56.20
10903;DHT22;5504;47.312;11.060;2023-04-25T14:13:12;13.30;55.60
10903;DHT22;5504;47.312;11.060;2023-04-25T14:15:38;14.00;56.60
10903;DHT22;5504;47.312;11.060;2023-04-25T14:18:04;14.20;55.90
10903;DHT22;5504;47.312;11.060;2023-04-25T14:20:30;14.10;54.10
10903;DHT22;5504;47.312;11.060;2023-04-25T14:22:56;14.00;53.70
10903;DHT22;5504;47.312;11.060;2023-04-25T14:25:23;14.10;53.90
10903;DHT22;5504;47.312;11.060;2023-04-25T14:27:49;13.90;53.20
10903;DHT22;5504;47.312;11.060;2023-04-25T14:30:19;13.50;53.80
10903;DHT22;5504;47.312;11.060;2023-04-25T14:32:46;13.00;54.50
10903;DHT22;5504;47.312;11.060;2023-04-25T14:35:11;13.00;55.90
10903;DHT22;5504;47.312;11.060;2023-04-25T14:37:37;13.00;55.10
10903;DHT22;5504;47.312;11.060;2023-04-25T14:40:03;13.20;56.20
10903;DHT22;5504;47.312;11.060;2023-04-25T14:42:30;13.30;55.80
10903;DHT22;5504;47.312;11.060;2023-04-25T14:44:55;13.30;56.40
10903;DHT22;5504;47.312;11.060;2023-04-25T14:47:21;13.10;54.30
10903;DHT22;5504;47.312;11.060;2023-04-25T14:49:47;13.10;55.10
10903;DHT22;5504;47.312;11.060;2023-04-25T14:52:22;12.90;55.70
10903;DHT22;5504;47.312;11.060;2023-04-25T14:54:48;12.60;55.60
10903;DHT22;5504;47.312;11.060;2023-04-25T14:57:14;12.50;56.80
10903;DHT22;5504;47.312;11.060;2023-04-25T14:59:39;12.50;56.40
10903;DHT22;5504;47.312;11.060;2023-04-25T15:02:05;12.40;57.30
10903;DHT22;5504;47.312;11.060;2023-04-25T15:04:31;12.90;57.80
10903;DHT22;5504;47.312;11.060;2023-04-25T15:06:57;12.80;56.20
10903;DHT22;5504;47.312;11.060;2023-04-25T15:09:22;12.90;57.10
10903;DHT22;5504;47.312;11.060;2023-04-25T15:11:49;13.00;56.30
10903;DHT22;5504;47.312;11.060;2023-04-25T15:14:16;13.40;56.20
10903;DHT22;5504;47.312;11.060;2023-04-25T15:16:42;13.20;55.20
10903;DHT22;5504;47.312;11.060;2023-04-25T15:19:08;13.30;55.70
10903;DHT22;5504;47.312;11.060;2023-04-25T15:21:34;13.50;55.50
10903;DHT22;5504;47.312;11.060;2023-04-25T15:23:59;13.60;54.40
10903;DHT22;5504;47.312;11.060;2023-04-25T15:26:26;13.70;55.50
10903;DHT22;5504;47.312;11.060;2023-04-25T15:28:52;14.00;53.50
10903;DHT22;5504;47.312;11.060;2023-04-25T15:31:18;14.10;53.30
10903;DHT22;5504;47.312;11.060;2023-04-25T15:33:44;14.20;51.80
10903;DHT22;5504;47.312;11.060;2023-04-25T15:36:09;13.90;51.90
10903;DHT22;5504;47.312;11.060;2023-04-25T15:38:36;13.80;51.90
10903;DHT22;5504;47.312;11.060;2023-04-25T15:41:01;13.30;53.20
10903;DHT22;5504;47.312;11.060;2023-04-25T15:43:27;13.00;53.90
10903;DHT22;5504;47.312;11.060;2023-04-25T15:45:54;13.00;54.60